Time;durP1;ratioP1;P1;durP2;ratioP2;P2;SDS_P1;SDS_P2;PMS_P1;PMS_P2;Temp;Humidity;BMP_temperature;BMP_pressure;BME280_temperature;BME280_humidity;BME280_pressure;Samples;Min_cycle;Max_cycle;Signal;HPM_P1;HPM_P2
2024/01/12 00:00:45;;;;;;;15.52;10.13;;;;;;;;;;5052544;28;41806;-68
2024/01/12 00:03:12;;;;;;;12.68;8.18;;;;;;;;;;5065853;28;40625;-68
2024/01/12 00:05:41;;;;;;;12.45;7.50;;;;;;;;;;5066771;28;42168;-63
2024/01/12 00:08:09;;;;;;;12.15;8.50;;;;;;;;;;5064266;28;42686;-64
2024/01/12 00:10:36;;;;;;;13.30;9.23;;;;;;;;;;5048407;28;40379;-64
2024/01/12 00:13:07;;;;;;;12.40;8.48;;;;;;;;;;5049560;28;41262;-64
2024/01/12 00:15:37;;;;;;;16.75;10.75;;;;;;;;;;5051025;28;40671;-64
2024/01/12 00:18:05;;;;;;;13.70;9.02;;;;;;;;;;5052938;28;42118;-64
2024/01/12 00:20:34;;;;;;;13.90;9.45;;;;;;;;;;5061408;28;43080;-64
2024/01/12 00:23:02;;;;;;;11.98;8.45;;;;;;;;;;5054246;28;40045;-65
2024/01/12 00:25:30;;;;;;;14.20;8.75;;;;;;;;;;5051105;28;41495;-64
2024/01/12 00:27:58;;;;;;;10.98;8.10;;;;;;;;;;5054863;28;42110;-64
2024/01/12 00:30:26;;;;;;;11.95;8.40;;;;;;;;;;5059551;28;40826;-64
2024/01/12 00:32:56;;;;;;;16.75;9.95;;;;;;;;;;5063142;28;42001;-64
2024/01/12 00:35:24;;;;;;;14.05;9.52;;;;;;;;;;5058272;28;42163;-65
2024/01/12 00:37:52;;;;;;;10.60;7.70;;;;;;;;;;5059665;28;41445;-65
2024/01/12 00:40:20;;;;;;;10.52;7.80;;;;;;;;;;5059331;28;42021;-65
2024/01/12 00:42:50;;;;;;;15.57;9.23;;;;;;;;;;5061482;28;40379;-65
2024/01/12 00:45:18;;;;;;;11.25;7.95;;;;;;;;;;5068509;28;42206;-64
2024/01/12 00:47:46;;;;;;;12.95;8.75;;;;;;;;;;5054043;28;42689;-64
2024/01/12 00:50:15;;;;;;;12.73;8.32;;;;;;;;;;5064720;28;41326;-64
2024/01/12 00:52:43;;;;;;;12.63;8.05;;;;;;;;;;5065230;28;41897;-64
2024/01/12 00:55:11;;;;;;;12.90;9.02;;;;;;;;;;5065091;28;42166;-64
2024/01/12 00:57:39;;;;;;;11.25;8.48;;;;;;;;;;5065223;28;40435;-64
2024/01/12 01:00:09;;;;;;;14.23;8.98;;;;;;;;;;5056019;28;41804;-64
2024/01/12 01:02:37;;;;;;;10.55;8.10;;;;;;;;;;5061991;28;39424;-64
2024/01/12 01:05:08;;;;;;;13.43;9.10;;;;;;;;;;5064733;28;41316;-64
2024/01/12 01:07:38;;;;;;;12.15;9.02;;;;;;;;;;5065437;28;42291;-64
2024/01/12 01:10:06;;;;;;;10.68;6.78;;;;;;;;;;5064116;28;41492;-64
2024/01/12 01:12:34;;;;;;;12.13;8.88;;;;;;;;;;5064754;28;42372;-64
2024/01/12 01:15:06;;;;;;;15.65;10.25;;;;;;;;;;5064575;28;42139;-64
2024/01/12 01:17:35;;;;;;;14.57;10.23;;;;;;;;;;5065191;28;41033;-64
2024/01/12 01:20:03;;;;;;;14.73;9.07;;;;;;;;;;5063338;28;41451;-64
2024/01/12 01:22:33;;;;;;;13.15;9.40;;;;;;;;;;5065053;28;40958;-64
2024/01/12 01:25:02;;;;;;;15.15;10.02;;;;;;;;;;5065961;28;41438;-64
2024/01/12 01:27:30;;;;;;;14.55;9.13;;;;;;;;;;5063884;28;41891;-65
2024/01/12 01:30:00;;;;;;;12.05;9.07;;;;;;;;;;5064982;28;41547;-64
2024/01/12 01:32:28;;;;;;;15.48;10.18;;;;;;;;;;5056624;28;41660;-64
2024/01/12 01:34:56;;;;;;;11.32;8.00;;;;;;;;;;5063141;28;41408;-64
2024/01/12 01:37:24;;;;;;;12.75;8.32;;;;;;;;;;5064152;28;40656;-64
2024/01/12 01:39:52;;;;;;;11.38;8.52;;;;;;;;;;5063859;28;42556;-64
2024/01/12 01:42:21;;;;;;;13.00;8.65;;;;;;;;;;5062087;28;43047;-64
2024/01/12 01:44:50;;;;;;;12.55;8.77;;;;;;;;;;5057375;28;41721;-63
2024/01/12 01:47:18;;;;;;;12.10;8.35;;;;;;;;;;5050085;28;44883;-65
2024/01/12 01:49:46;;;;;;;13.75;8.98;;;;;;;;;;5056346;28;40193;-65
2024/01/12 01:52:14;;;;;;;12.25;9.05;;;;;;;;;;5063820;28;41539;-65
2024/01/12 01:54:42;;;;;;;11.00;7.75;;;;;;;;;;5058249;28;41587;-64
2024/01/12 01:57:10;;;;;;;10.07;7.60;;;;;;;;;;5063141;28;41377;-65
2024/01/12 01:59:40;;;;;;;13.65;9.68;;;;;;;;;;5066349;28;42795;-65
2024/01/12 02:02:08;;;;;;;13.10;8.82;;;;;;;;;;5066658;28;43344;-64
2024/01/12 02:04:36;;;;;;;13.07;9.07;;;;;;;;;;5066429;28;39834;-64
2024/01/12 02:07:04;;;;;;;10.10;6.93;;;;;;;;;;5063809;28;41773;-65
2024/01/12 02:09:32;;;;;;;13.50;9.35;;;;;;;;;;5066046;28;40791;-64
2024/01/12 02:12:00;;;;;;;10.88;7.65;;;;;;;;;;5067608;28;42067;-64
2024/01/12 02:14:28;;;;;;;11.07;8.18;;;;;;;;;;5064632;28;42080;-65
2024/01/12 02:16:58;;;;;;;11.73;8.93;;;;;;;;;;5066132;28;40971;-64
2024/01/12 02:19:26;;;;;;;12.55;8.60;;;;;;;;;;5066398;28;41017;-64
2024/01/12 02:21:55;;;;;;;11.02;7.55;;;;;;;;;;5066049;28;43522;-64
2024/01/12 02:24:23;;;;;;;14.23;9.13;;;;;;;;;;5066956;28;41043;-64
2024/01/12 02:26:51;;;;;;;10.30;7.57;;;;;;;;;;5067591;28;41847;-64
2024/01/12 02:29:19;;;;;;;10.63;8.45;;;;;;;;;;5066297;28;40850;-64
2024/01/12 02:31:47;;;;;;;10.43;8.30;;;;;;;;;;5066864;28;41510;-64
2024/01/12 02:34:15;;;;;;;14.52;8.85;;;;;;;;;;5068298;28;42594;-64
2024/01/12 02:36:43;;;;;;;12.27;8.57;;;;;;;;;;5059896;28;40315;-64
2024/01/12 02:39:12;;;;;;;12.82;9.35;;;;;;;;;;5061605;28;42382;-64
2024/01/12 02:41:40;;;;;;;12.57;9.07;;;;;;;;;;5067232;28;41901;-65
2024/01/12 02:44:08;;;;;;;10.07;7.75;;;;;;;;;;5067035;28;41323;-64
2024/01/12 02:46:36;;;;;;;11.57;8.43;;;;;;;;;;5067563;28;41555;-65
2024/01/12 02:49:04;;;;;;;11.27;8.07;;;;;;;;;;5066281;28;41295;-65
2024/01/12 02:51:32;;;;;;;12.43;8.88;;;;;;;;;;5067165;28;41685;-64
2024/01/12 02:54:03;;;;;;;13.07;8.07;;;;;;;;;;5054584;28;42367;-65
2024/01/12 02:56:32;;;;;;;9.15;6.35;;;;;;;;;;5063443;28;41404;-64
2024/01/12 02:59:01;;;;;;;12.57;8.98;;;;;;;;;;5065095;28;20287;-64
2024/01/12 03:01:29;;;;;;;11.75;8.48;;;;;;;;;;5066177;28;41755;-64
2024/01/12 03:03:57;;;;;;;10.05;7.38;;;;;;;;;;5067118;28;40083;-64
2024/01/12 03:06:25;;;;;;;13.27;8.95;;;;;;;;;;5065037;28;41642;-64
2024/01/12 03:08:53;;;;;;;11.30;8.75;;;;;;;;;;5066322;28;42478;-64
2024/01/12 03:11:21;;;;;;;11.00;8.27;;;;;;;;;;5065519;28;41460;-64
2024/01/12 03:13:51;;;;;;;13.82;9.82;;;;;;;;;;5066516;28;41098;-64
2024/01/12 03:16:19;;;;;;;11.68;8.23;;;;;;;;;;5057314;28;40504;-65
2024/01/12 03:18:48;;;;;;;11.13;8.30;;;;;;;;;;5065600;28;41873;-65
2024/01/12 03:21:16;;;;;;;11.43;8.25;;;;;;;;;;5065983;28;42395;-64
2024/01/12 03:23:44;;;;;;;10.30;7.05;;;;;;;;;;5067593;28;41061;-65
2024/01/12 03:26:12;;;;;;;11.13;6.93;;;;;;;;;;5065310;28;42210;-64
2024/01/12 03:28:40;;;;;;;11.57;8.38;;;;;;;;;;5052857;28;41996;-64
2024/01/12 03:31:10;;;;;;;12.57;8.35;;;;;;;;;;5059702;28;40561;-64
2024/01/12 03:33:38;;;;;;;9.35;7.13;;;;;;;;;;5066377;28;42307;-64
2024/01/12 03:36:06;;;;;;;11.88;7.32;;;;;;;;;;5065858;28;41404;-65
2024/01/12 03:38:34;;;;;;;10.30;7.15;;;;;;;;;;5064322;28;41828;-65
2024/01/12 03:41:04;;;;;;;13.45;9.15;;;;;;;;;;5064787;28;43117;-64
2024/01/12 03:43:32;;;;;;;9.93;7.47;;;;;;;;;;5066445;28;40516;-65
2024/01/12 03:46:00;;;;;;;10.98;8.02;;;;;;;;;;5064707;28;41401;-65
2024/01/12 03:48:29;;;;;;;13.82;8.98;;;;;;;;;;5066599;28;42163;-65
2024/01/12 03:50:58;;;;;;;19.02;8.20;;;;;;;;;;5059928;28;40524;-64
2024/01/12 03:53:26;;;;;;;12.38;8.93;;;;;;;;;;5066328;28;42205;-65
2024/01/12 03:55:54;;;;;;;8.90;6.85;;;;;;;;;;5065619;28;39977;-64
2024/01/12 03:58:22;;;;;;;12.43;8.70;;;;;;;;;;5066010;28;42564;-64
2024/01/12 04:00:50;;;;;;;12.68;8.13;;;;;;;;;;5064271;28;41842;-64
2024/01/12 04:03:18;;;;;;;12.32;8.75;;;;;;;;;;5064779;28;41290;-65
2024/01/12 04:05:47;;;;;;;13.20;9.25;;;;;;;;;;5065806;28;41677;-64
2024/01/12 04:08:15;;;;;;;12.40;8.85;;;;;;;;;;5064655;28;42430;-64
2024/01/12 04:10:43;;;;;;;13.25;8.93;;;;;;;;;;5065460;28;40507;-65
2024/01/12 04:13:11;;;;;;;11.07;8.02;;;;;;;;;;5066043;28;40998;-65
2024/01/12 04:15:39;;;;;;;12.45;9.00;;;;;;;;;;5064892;28;41540;-65
2024/01/12 04:18:07;;;;;;;9.45;6.82;;;;;;;;;;5065539;28;41465;-64
2024/01/12 04:20:35;;;;;;;11.10;8.50;;;;;;;;;;5064352;28;42023;-64
2024/01/12 04:23:05;;;;;;;9.55;6.80;;;;;;;;;;5064827;28;40053;-65
2024/01/12 04:25:33;;;;;;;11.32;7.95;;;;;;;;;;5065300;28;41780;-65
2024/01/12 04:28:00;;;;;;;14.02;9.52;;;;;;;;;;5066717;28;42308;-64
2024/01/12 04:30:28;;;;;;;11.18;7.57;;;;;;;;;;5064097;28;40312;-64
2024/01/12 04:32:56;;;;;;;10.27;7.07;;;;;;;;;;5066053;28;42071;-65
2024/01/12 04:35:25;;;;;;;10.90;7.40;;;;;;;;;;5064857;28;42703;-65
2024/01/12 04:37:53;;;;;;;10.00;6.90;;;;;;;;;;5065861;28;41168;-65
2024/01/12 04:40:22;;;;;;;10.90;7.85;;;;;;;;;;5062629;28;42127;-65
2024/01/12 04:42:50;;;;;;;10.40;7.43;;;;;;;;;;5064259;28;40320;-65
2024/01/12 04:45:18;;;;;;;11.88;8.57;;;;;;;;;;5062368;28;41116;-65
2024/01/12 04:47:46;;;;;;;10.73;7.72;;;;;;;;;;5065353;28;41507;-65
2024/01/12 04:50:14;;;;;;;10.07;6.95;;;;;;;;;;5063265;28;40099;-65
2024/01/12 04:52:42;;;;;;;10.90;7.60;;;;;;;;;;5064741;28;41149;-65
2024/01/12 04:55:10;;;;;;;13.90;8.80;;;;;;;;;;5064068;28;42706;-65
2024/01/12 04:57:39;;;;;;;10.77;7.88;;;;;;;;;;5063207;28;41853;-65
2024/01/12 05:00:08;;;;;;;10.75;7.68;;;;;;;;;;5065359;28;42161;-65
2024/01/12 05:02:40;;;;;;;9.02;7.25;;;;;;;;;;5060833;28;41005;-64
2024/01/12 05:05:08;;;;;;;10.52;7.10;;;;;;;;;;5052292;28;41377;-64
2024/01/12 05:07:36;;;;;;;10.98;7.78;;;;;;;;;;5062082;28;42159;-64
2024/01/12 05:10:05;;;;;;;11.88;8.35;;;;;;;;;;5064803;28;39866;-64
2024/01/12 05:12:34;;;;;;;9.48;6.80;;;;;;;;;;5061585;28;41209;-64
2024/01/12 05:15:04;;;;;;;13.02;9.20;;;;;;;;;;5052414;28;43472;-64
2024/01/12 05:17:32;;;;;;;13.30;9.32;;;;;;;;;;5064735;28;43463;-64
2024/01/12 05:20:06;;;;;;;13.45;9.70;;;;;;;;;;5057780;28;41667;-65
2024/01/12 05:22:35;;;;;;;10.93;7.97;;;;;;;;;;5063363;28;40319;-64
2024/01/12 05:25:03;;;;;;;11.93;8.68;;;;;;;;;;5062920;28;42179;-65
2024/01/12 05:27:31;;;;;;;9.60;7.30;;;;;;;;;;5057770;28;42571;-64
2024/01/12 05:29:59;;;;;;;11.27;8.05;;;;;;;;;;5064168;28;40142;-65
2024/01/12 05:32:32;;;;;;;12.95;8.88;;;;;;;;;;5057258;28;42733;-65
2024/01/12 05:35:00;;;;;;;10.20;7.50;;;;;;;;;;5066838;28;43094;-64
2024/01/12 05:37:29;;;;;;;9.25;7.20;;;;;;;;;;5067974;28;40381;-64
2024/01/12 05:39:57;;;;;;;10.55;7.90;;;;;;;;;;5055654;28;43030;-64
2024/01/12 05:42:25;;;;;;;11.10;8.15;;;;;;;;;;5065744;28;42676;-64
2024/01/12 05:44:53;;;;;;;9.75;7.50;;;;;;;;;;5067436;28;42151;-64
2024/01/12 05:47:21;;;;;;;10.95;8.23;;;;;;;;;;5066543;28;41419;-64
2024/01/12 05:49:51;;;;;;;8.40;6.53;;;;;;;;;;5067733;28;41034;-65
2024/01/12 05:52:19;;;;;;;10.18;6.75;;;;;;;;;;5060936;28;41827;-64
2024/01/12 05:54:47;;;;;;;12.45;8.00;;;;;;;;;;5058932;28;42077;-65
2024/01/12 05:57:15;;;;;;;12.23;7.57;;;;;;;;;;5068390;28;40899;-64
2024/01/12 05:59:43;;;;;;;10.60;7.40;;;;;;;;;;5063850;28;41711;-65
2024/01/12 06:02:14;;;;;;;12.25;8.15;;;;;;;;;;5068065;28;41886;-64
2024/01/12 06:04:42;;;;;;;9.43;6.85;;;;;;;;;;5052812;28;40391;-65
2024/01/12 06:07:11;;;;;;;10.93;7.93;;;;;;;;;;5061244;28;41720;-65
2024/01/12 06:09:39;;;;;;;8.93;6.38;;;;;;;;;;5067589;28;41406;-65
2024/01/12 06:12:08;;;;;;;9.32;6.90;;;;;;;;;;5064515;28;41698;-65
2024/01/12 06:14:36;;;;;;;10.55;7.82;;;;;;;;;;5061308;28;42143;-65
2024/01/12 06:17:04;;;;;;;7.10;5.97;;;;;;;;;;5059458;28;39992;-64
2024/01/12 06:19:32;;;;;;;11.73;8.02;;;;;;;;;;5065879;28;41388;-65
2024/01/12 06:22:00;;;;;;;8.05;6.15;;;;;;;;;;5067036;28;41972;-65
2024/01/12 06:24:30;;;;;;;8.35;6.43;;;;;;;;;;5068678;28;40598;-65
2024/01/12 06:26:58;;;;;;;9.60;6.95;;;;;;;;;;5062429;28;41855;-64
2024/01/12 06:29:30;;;;;;;7.95;5.78;;;;;;;;;;5065390;28;41710;-65
2024/01/12 06:31:59;;;;;;;9.15;7.05;;;;;;;;;;5059827;28;41221;-64
2024/01/12 06:34:27;;;;;;;8.95;7.00;;;;;;;;;;5053024;28;42188;-64
2024/01/12 06:36:56;;;;;;;11.57;8.50;;;;;;;;;;5049792;28;40261;-64
2024/01/12 06:39:24;;;;;;;12.32;8.77;;;;;;;;;;5061234;28;41502;-65
2024/01/12 06:41:53;;;;;;;10.18;7.63;;;;;;;;;;5067532;28;42117;-65
2024/01/12 06:44:24;;;;;;;11.75;7.78;;;;;;;;;;5066491;28;40363;-64
2024/01/12 06:46:52;;;;;;;11.23;7.88;;;;;;;;;;5067840;28;41772;-64
2024/01/12 06:49:20;;;;;;;9.88;7.35;;;;;;;;;;5067864;28;40306;-65
2024/01/12 06:51:48;;;;;;;10.07;7.72;;;;;;;;;;5067552;28;42862;-65
2024/01/12 06:54:16;;;;;;;10.70;7.53;;;;;;;;;;5067134;28;43093;-64
2024/01/12 06:56:46;;;;;;;9.60;6.57;;;;;;;;;;5066149;28;40672;-64
2024/01/12 06:59:16;;;;;;;10.75;6.95;;;;;;;;;;5066520;28;41653;-65
2024/01/12 07:01:44;;;;;;;11.13;7.80;;;;;;;;;;5065965;28;41760;-65
2024/01/12 07:04:12;;;;;;;8.38;5.88;;;;;;;;;;5065654;28;40160;-69
2024/01/12 07:06:40;;;;;;;9.45;6.47;;;;;;;;;;5058808;28;42612;-68
2024/01/12 07:09:11;;;;;;;10.50;6.60;;;;;;;;;;5064233;28;42158;-68
2024/01/12 07:11:40;;;;;;;12.20;7.82;;;;;;;;;;5065474;28;40893;-64
2024/01/12 07:14:08;;;;;;;11.32;6.88;;;;;;;;;;5057314;28;42643;-63
2024/01/12 07:16:38;;;;;;;9.55;7.18;;;;;;;;;;5055283;28;40149;-63
2024/01/12 07:19:06;;;;;;;10.00;5.80;;;;;;;;;;5058123;28;41762;-73
2024/01/12 07:21:35;;;;;;;18.60;6.55;;;;;;;;;;5058155;28;43068;-74
2024/01/12 07:24:03;;;;;;;9.70;5.72;;;;;;;;;;5049587;28;40373;-73
2024/01/12 07:26:31;;;;;;;12.48;6.50;;;;;;;;;;5054685;28;42239;-73
2024/01/12 07:28:59;;;;;;;9.88;5.25;;;;;;;;;;5050576;28;42025;-73
2024/01/12 07:31:27;;;;;;;11.68;7.10;;;;;;;;;;5063369;28;40039;-70
2024/01/12 07:33:56;;;;;;;20.20;7.22;;;;;;;;;;5064914;28;41361;-74
2024/01/12 07:36:24;;;;;;;45.42;9.68;;;;;;;;;;5066113;28;41036;-69
2024/01/12 07:38:52;;;;;;;20.15;7.43;;;;;;;;;;5062007;28;41432;-73
2024/01/12 07:41:20;;;;;;;23.55;7.72;;;;;;;;;;5048518;28;43113;-78
2024/01/12 07:43:48;;;;;;;30.58;8.05;;;;;;;;;;5051383;28;40019;-74
2024/01/12 07:46:17;;;;;;;20.50;7.22;;;;;;;;;;5062245;28;42112;-74
2024/01/12 07:48:47;;;;;;;16.70;7.72;;;;;;;;;;5050191;28;43176;-71
2024/01/12 07:51:17;;;;;;;19.38;6.22;;;;;;;;;;5056921;28;40413;-72
2024/01/12 07:53:45;;;;;;;17.08;6.47;;;;;;;;;;5062250;28;41269;-72
2024/01/12 07:56:13;;;;;;;21.95;7.35;;;;;;;;;;5050085;28;41353;-71
2024/01/12 07:58:41;;;;;;;16.27;6.40;;;;;;;;;;5055546;28;41254;-73
2024/01/12 08:01:12;;;;;;;17.70;7.90;;;;;;;;;;5063327;28;42944;-76
2024/01/12 08:03:40;;;;;;;19.10;7.93;;;;;;;;;;5066476;28;40323;-72
2024/01/12 08:06:08;;;;;;;14.13;7.13;;;;;;;;;;5052419;28;41675;-80
2024/01/12 08:08:38;;;;;;;16.52;6.57;;;;;;;;;;5064990;28;41915;-75
2024/01/12 08:11:07;;;;;;;18.35;6.97;;;;;;;;;;5066304;28;41181;-74
2024/01/12 08:13:49;;;;;;;20.70;7.03;;;;;;;;;;5063959;28;41663;-74
2024/01/12 08:16:18;;;;;;;10.80;5.22;;;;;;;;;;5066182;28;32507;-75
2024/01/12 08:18:45;;;;;;;14.48;6.57;;;;;;;;;;5065573;28;41851;-79
2024/01/12 08:21:13;;;;;;;13.63;6.43;;;;;;;;;;5059145;28;43409;-73
2024/01/12 08:23:43;;;;;;;14.98;5.85;;;;;;;;;;5057005;28;41002;-73
2024/01/12 08:26:11;;;;;;;15.23;6.40;;;;;;;;;;5052887;28;42174;-76
2024/01/12 08:28:39;;;;;;;12.82;5.97;;;;;;;;;;5052699;28;42310;-76
2024/01/12 08:31:07;;;;;;;10.63;6.07;;;;;;;;;;5051672;28;40515;-74
2024/01/12 08:33:37;;;;;;;12.45;6.47;;;;;;;;;;5053261;28;40943;-73
2024/01/12 08:36:05;;;;;;;12.65;6.25;;;;;;;;;;5065890;28;42657;-75
2024/01/12 08:38:33;;;;;;;13.85;5.53;;;;;;;;;;5066125;28;41364;-71
2024/01/12 08:41:03;;;;;;;14.35;6.80;;;;;;;;;;5057835;28;41905;-69
2024/01/12 08:43:31;;;;;;;15.80;6.75;;;;;;;;;;5058133;28;40835;-74
2024/01/12 08:46:01;;;;;;;9.60;5.30;;;;;;;;;;5061330;28;41522;-74
2024/01/12 08:48:29;;;;;;;9.63;4.95;;;;;;;;;;5056801;28;43259;-74
2024/01/12 08:50:58;;;;;;;12.30;5.53;;;;;;;;;;5053790;28;40873;-74
2024/01/12 08:53:26;;;;;;;11.85;5.72;;;;;;;;;;5057915;28;42620;-69
2024/01/12 08:55:54;;;;;;;12.80;5.05;;;;;;;;;;5063537;28;42624;-72
2024/01/12 08:58:23;;;;;;;10.85;5.25;;;;;;;;;;5062592;28;40685;-73
2024/01/12 09:00:51;;;;;;;9.80;5.68;;;;;;;;;;5060194;28;43224;-69
2024/01/12 09:03:19;;;;;;;12.15;5.80;;;;;;;;;;5064312;28;40465;-71
2024/01/12 09:05:47;;;;;;;13.68;5.60;;;;;;;;;;5050778;28;41508;-71
2024/01/12 09:08:15;;;;;;;8.75;5.50;;;;;;;;;;5055915;28;42148;-72
2024/01/12 09:10:44;;;;;;;11.23;5.88;;;;;;;;;;5062144;28;41413;-76
2024/01/12 09:13:12;;;;;;;24.83;5.25;;;;;;;;;;5062785;28;40581;-70
2024/01/12 09:15:41;;;;;;;10.73;4.70;;;;;;;;;;5061522;28;42174;-70
2024/01/12 09:18:09;;;;;;;9.65;4.45;;;;;;;;;;5053146;28;41040;-75
2024/01/12 09:20:37;;;;;;;13.63;5.35;;;;;;;;;;5052044;28;42315;-76
2024/01/12 09:23:06;;;;;;;9.10;4.68;;;;;;;;;;5060679;28;40697;-75
2024/01/12 09:25:34;;;;;;;15.68;7.40;;;;;;;;;;5062103;28;41654;-76
2024/01/12 09:28:02;;;;;;;11.57;5.97;;;;;;;;;;5065203;28;42765;-76
2024/01/12 09:30:30;;;;;;;12.65;5.28;;;;;;;;;;5065440;28;40174;-76
2024/01/12 09:32:59;;;;;;;11.80;5.75;;;;;;;;;;5064175;28;41314;-76
2024/01/12 09:35:27;;;;;;;14.63;5.72;;;;;;;;;;5065408;28;41980;-77
2024/01/12 09:37:56;;;;;;;10.82;5.70;;;;;;;;;;5063506;28;41018;-76
2024/01/12 09:40:24;;;;;;;10.15;5.13;;;;;;;;;;5064837;28;41686;-76
2024/01/12 09:42:52;;;;;;;9.95;5.22;;;;;;;;;;5063614;28;41031;-76
2024/01/12 09:45:20;;;;;;;11.07;5.13;;;;;;;;;;5051509;28;41512;-77
2024/01/12 09:47:52;;;;;;;7.25;4.55;;;;;;;;;;5064364;28;41395;-76
2024/01/12 09:50:22;;;;;;;9.82;4.78;;;;;;;;;;5064561;28;41793;-76
2024/01/12 09:52:51;;;;;;;9.77;4.72;;;;;;;;;;5062534;28;41106;-76
2024/01/12 09:55:19;;;;;;;8.27;4.93;;;;;;;;;;5063852;28;42183;-76
2024/01/12 09:57:47;;;;;;;10.38;4.85;;;;;;;;;;5060792;28;40080;-76
2024/01/12 10:00:15;;;;;;;10.52;4.43;;;;;;;;;;5064507;28;42701;-76
2024/01/12 10:02:43;;;;;;;6.35;4.38;;;;;;;;;;5063305;28;41379;-76
2024/01/12 10:05:11;;;;;;;6.75;4.10;;;;;;;;;;5065063;28;39946;-76
2024/01/12 10:07:41;;;;;;;6.53;4.05;;;;;;;;;;5063742;28;42078;-76
2024/01/12 10:10:09;;;;;;;7.85;4.13;;;;;;;;;;5054197;28;40247;-76
2024/01/12 10:12:37;;;;;;;6.32;4.07;;;;;;;;;;5059814;28;41210;-76
2024/01/12 10:15:05;;;;;;;8.18;4.07;;;;;;;;;;5064183;28;41499;-76
2024/01/12 10:17:35;;;;;;;7.90;3.97;;;;;;;;;;5063921;28;39915;-68
2024/01/12 10:20:06;;;;;;;10.73;4.25;;;;;;;;;;5065227;28;41757;-68
2024/01/12 10:22:34;;;;;;;10.48;4.20;;;;;;;;;;5066422;28;42650;-68
2024/01/12 10:25:03;;;;;;;7.40;3.80;;;;;;;;;;5068204;28;40409;-67
2024/01/12 10:27:31;;;;;;;9.25;3.78;;;;;;;;;;5066012;28;41999;-67
2024/01/12 10:29:59;;;;;;;9.27;4.45;;;;;;;;;;5067105;28;40029;-67
2024/01/12 10:32:28;;;;;;;8.43;3.85;;;;;;;;;;5066546;28;41515;-68
2024/01/12 10:34:56;;;;;;;7.88;3.63;;;;;;;;;;5066113;28;42592;-72
2024/01/12 10:37:24;;;;;;;16.80;3.80;;;;;;;;;;5067618;28;40565;-71
2024/01/12 10:39:52;;;;;;;9.88;3.42;;;;;;;;;;5067969;28;42563;-72
2024/01/12 10:42:23;;;;;;;8.90;3.47;;;;;;;;;;5067333;28;42611;-71
2024/01/12 10:44:51;;;;;;;5.65;2.97;;;;;;;;;;5066535;28;40244;-71
2024/01/12 10:47:21;;;;;;;7.13;3.72;;;;;;;;;;5069304;28;41773;-71
2024/01/12 10:49:50;;;;;;;9.38;4.10;;;;;;;;;;5065537;28;40525;-71
2024/01/12 10:52:22;;;;;;;9.48;3.28;;;;;;;;;;5067253;28;45355;-71
2024/01/12 10:54:51;;;;;;;9.27;3.53;;;;;;;;;;5067599;28;43055;-71
2024/01/12 10:57:19;;;;;;;9.10;2.75;;;;;;;;;;5065717;28;40040;-71
2024/01/12 10:59:48;;;;;;;7.60;3.08;;;;;;;;;;5065534;28;41759;-72
2024/01/12 11:02:16;;;;;;;7.05;2.70;;;;;;;;;;5065018;28;40248;-71
2024/01/12 11:04:45;;;;;;;6.43;3.28;;;;;;;;;;5055240;28;41385;-71
2024/01/12 11:07:13;;;;;;;5.93;3.08;;;;;;;;;;5066994;28;41356;-71
2024/01/12 11:09:41;;;;;;;11.40;3.78;;;;;;;;;;5066520;28;43056;-71
2024/01/12 11:12:09;;;;;;;6.93;2.83;;;;;;;;;;5066645;28;41605;-72
2024/01/12 11:14:38;;;;;;;7.15;2.72;;;;;;;;;;5068138;28;42756;-71
2024/01/12 11:17:07;;;;;;;5.28;2.42;;;;;;;;;;5066092;28;40487;-72
2024/01/12 11:19:35;;;;;;;7.63;3.00;;;;;;;;;;5066779;28;41470;-71
2024/01/12 11:22:04;;;;;;;10.48;4.35;;;;;;;;;;5065503;28;42531;-71
2024/01/12 11:24:32;;;;;;;5.72;3.15;;;;;;;;;;5066309;28;40395;-71
2024/01/12 11:27:00;;;;;;;8.05;3.65;;;;;;;;;;5067515;28;41914;-71
2024/01/12 11:29:31;;;;;;;6.85;3.70;;;;;;;;;;5065883;28;42409;-71
2024/01/12 11:32:00;;;;;;;9.30;3.17;;;;;;;;;;5065026;28;41093;-72
2024/01/12 11:34:31;;;;;;;7.45;3.00;;;;;;;;;;5067713;28;41981;-72
2024/01/12 11:36:59;;;;;;;5.10;3.20;;;;;;;;;;5066401;28;39754;-71
2024/01/12 11:39:32;;;;;;;5.75;2.67;;;;;;;;;;5066578;28;41533;-71
2024/01/12 11:42:02;;;;;;;5.18;2.75;;;;;;;;;;5058430;28;42314;-71
2024/01/12 11:44:32;;;;;;;6.63;3.40;;;;;;;;;;5065337;28;39533;-71
2024/01/12 11:47:00;;;;;;;6.75;3.78;;;;;;;;;;5053043;28;41088;-71
2024/01/12 11:49:30;;;;;;;6.35;3.58;;;;;;;;;;5067731;28;42150;-71
2024/01/12 11:52:03;;;;;;;8.10;3.00;;;;;;;;;;5066086;28;40882;-72
2024/01/12 11:54:31;;;;;;;6.50;3.17;;;;;;;;;;5068492;28;42600;-72
2024/01/12 11:57:01;;;;;;;8.25;2.60;;;;;;;;;;5067105;28;40182;-72
2024/01/12 11:59:30;;;;;;;4.68;2.80;;;;;;;;;;5053386;28;42572;-72
2024/01/12 12:01:59;;;;;;;5.80;2.72;;;;;;;;;;5067158;28;41586;-72
2024/01/12 12:04:28;;;;;;;3.88;2.25;;;;;;;;;;5066994;28;40970;-72
2024/01/12 12:06:57;;;;;;;5.63;3.33;;;;;;;;;;5066605;28;41238;-72
2024/01/12 12:09:27;;;;;;;4.60;2.40;;;;;;;;;;5066470;28;42044;-72
2024/01/12 12:11:55;;;;;;;5.13;2.75;;;;;;;;;;5066887;28;41449;-72
2024/01/12 12:14:23;;;;;;;6.70;2.95;;;;;;;;;;5065151;28;41729;-72
2024/01/12 12:16:52;;;;;;;5.38;2.47;;;;;;;;;;5064935;28;42718;-72
2024/01/12 12:19:19;;;;;;;6.57;2.72;;;;;;;;;;5065272;28;41713;-72
2024/01/12 12:21:50;;;;;;;4.15;2.58;;;;;;;;;;5065713;28;41862;-72
2024/01/12 12:24:18;;;;;;;5.55;3.17;;;;;;;;;;5063882;28;40565;-72
2024/01/12 12:26:49;;;;;;;4.68;2.58;;;;;;;;;;5066257;28;42631;-72
2024/01/12 12:29:18;;;;;;;7.63;2.63;;;;;;;;;;5062876;28;41723;-72
2024/01/12 12:31:46;;;;;;;7.13;2.83;;;;;;;;;;5066380;28;39836;-72
2024/01/12 12:34:16;;;;;;;4.60;2.47;;;;;;;;;;5066307;28;41643;-72
2024/01/12 12:36:44;;;;;;;3.97;2.20;;;;;;;;;;5066612;28;41396;-72
2024/01/12 12:39:14;;;;;;;4.38;2.15;;;;;;;;;;5066422;28;42580;-72
2024/01/12 12:41:43;;;;;;;5.35;2.28;;;;;;;;;;5060899;28;42291;-72
2024/01/12 12:44:12;;;;;;;5.47;2.67;;;;;;;;;;5065089;28;41911;-73
2024/01/12 12:46:40;;;;;;;3.72;2.22;;;;;;;;;;5065166;28;41612;-72
2024/01/12 12:49:09;;;;;;;4.60;2.35;;;;;;;;;;5062324;28;42733;-72
2024/01/12 12:51:37;;;;;;;4.13;2.22;;;;;;;;;;5062839;28;40966;-71
2024/01/12 12:54:06;;;;;;;5.70;2.47;;;;;;;;;;5062619;28;41018;-72
2024/01/12 12:56:34;;;;;;;3.88;1.63;;;;;;;;;;5064503;28;41554;-71
2024/01/12 12:59:02;;;;;;;4.38;2.10;;;;;;;;;;5062402;28;40143;-72
2024/01/12 13:01:32;;;;;;;4.57;2.13;;;;;;;;;;5066880;28;41991;-72
2024/01/12 13:04:00;;;;;;;3.85;2.28;;;;;;;;;;5065094;28;39855;-71
2024/01/12 13:06:28;;;;;;;4.47;1.88;;;;;;;;;;5065785;28;42556;-72
2024/01/12 13:08:56;;;;;;;4.25;2.20;;;;;;;;;;5065806;28;42162;-72
2024/01/12 13:11:24;;;;;;;4.22;1.63;;;;;;;;;;5065372;28;40534;-71
2024/01/12 13:13:52;;;;;;;4.03;2.10;;;;;;;;;;5066616;28;42148;-72
2024/01/12 13:16:20;;;;;;;4.70;2.00;;;;;;;;;;5053096;28;42269;-72
2024/01/12 13:18:49;;;;;;;6.53;2.60;;;;;;;;;;5066548;28;41028;-72
2024/01/12 13:21:18;;;;;;;4.80;2.58;;;;;;;;;;5064150;28;39573;-72
2024/01/12 13:23:47;;;;;;;4.00;2.05;;;;;;;;;;5065523;28;40293;-72
2024/01/12 13:26:15;;;;;;;4.53;2.10;;;;;;;;;;5065549;28;41796;-72
2024/01/12 13:28:44;;;;;;;4.32;1.95;;;;;;;;;;5065666;28;43331;-72
2024/01/12 13:31:15;;;;;;;4.90;2.03;;;;;;;;;;5065115;28;40433;-72
2024/01/12 13:33:43;;;;;;;4.38;2.30;;;;;;;;;;5064258;28;42214;-72
2024/01/12 13:36:13;;;;;;;3.85;2.03;;;;;;;;;;5065825;28;41749;-71
2024/01/12 13:38:41;;;;;;;4.00;1.75;;;;;;;;;;5063857;28;41710;-72
2024/01/12 13:41:09;;;;;;;4.57;1.85;;;;;;;;;;5064734;28;42182;-73
2024/01/12 13:43:37;;;;;;;4.60;1.75;;;;;;;;;;5064888;28;43168;-72
2024/01/12 13:46:05;;;;;;;5.15;2.17;;;;;;;;;;5065662;28;41864;-72
2024/01/12 13:48:33;;;;;;;4.57;2.05;;;;;;;;;;5065222;28;42045;-72
2024/01/12 13:51:01;;;;;;;3.72;1.67;;;;;;;;;;5059287;28;40486;-73
2024/01/12 13:53:31;;;;;;;4.35;2.17;;;;;;;;;;5063825;28;41686;-72
2024/01/12 13:55:59;;;;;;;2.80;1.52;;;;;;;;;;5067732;28;41653;-72
2024/01/12 13:58:27;;;;;;;2.95;1.45;;;;;;;;;;5067563;28;40706;-73
2024/01/12 14:00:55;;;;;;;4.97;2.15;;;;;;;;;;5066495;28;42175;-73
2024/01/12 14:03:23;;;;;;;7.78;2.25;;;;;;;;;;5066645;28;42000;-72
2024/01/12 14:05:51;;;;;;;6.55;2.55;;;;;;;;;;5062057;28;41214;-73
2024/01/12 14:08:20;;;;;;;3.63;2.05;;;;;;;;;;5064759;28;40770;-72
2024/01/12 14:10:49;;;;;;;2.50;1.40;;;;;;;;;;5068225;28;39903;-73
2024/01/12 14:13:17;;;;;;;4.70;1.98;;;;;;;;;;5067306;28;40902;-72
2024/01/12 14:15:45;;;;;;;5.40;1.65;;;;;;;;;;5067071;28;42512;-72
2024/01/12 14:18:13;;;;;;;3.95;1.67;;;;;;;;;;5067358;28;39574;-72
2024/01/12 14:20:41;;;;;;;3.17;1.50;;;;;;;;;;5066235;28;40255;-73
2024/01/12 14:23:09;;;;;;;5.85;1.20;;;;;;;;;;5067278;28;41551;-73
2024/01/12 14:25:37;;;;;;;8.88;2.03;;;;;;;;;;5056697;28;39793;-70
2024/01/12 14:28:07;;;;;;;4.43;1.40;;;;;;;;;;5056608;28;41304;-73
2024/01/12 14:30:55;;;;;;;11.27;1.63;;;;;;;;;;5067204;28;41665;-69
2024/01/12 14:33:23;;;;;;;7.65;2.05;;;;;;;;;;5057951;28;42503;-70
2024/01/12 14:35:51;;;;;;;9.15;1.50;;;;;;;;;;5050738;28;42183;-68
2024/01/12 14:38:19;;;;;;;4.25;1.52;;;;;;;;;;5052813;28;39920;-69
2024/01/12 14:40:49;;;;;;;4.03;1.38;;;;;;;;;;5061253;28;41367;-69
2024/01/12 14:43:18;;;;;;;3.92;1.42;;;;;;;;;;5063963;28;42024;-69